sensor_id;sensor_type;location;lat;lon;timestamp;P1;durP1;ratioP1;P2;durP2;ratioP2
16737;SDS011;17906;47.684;10.806;2023-06-14T00:00:45;4.23;;;2.63;;
16737;SDS011;17906;47.684;10.806;2023-06-14T00:03:13;5.53;;;3.03;;
16737;SDS011;17906;47.684;10.806;2023-06-14T00:05:42;5.07;;;2.97;;
16737;SDS011;17906;47.684;10.806;2023-06-14T00:08:09;5.33;;;3.30;;
16737;SDS011;17906;47.684;10.806;2023-06-14T00:10:37;5.70;;;2.70;;
16737;SDS011;17906;47.684;10.806;2023-06-14T00:13:06;8.13;;;2.73;;
16737;SDS011;17906;47.684;10.806;2023-06-14T00:15:33;4.63;;;2.87;;
16737;SDS011;17906;47.684;10.806;2023-06-14T00:18:00;3.80;;;2.73;;
16737;SDS011;17906;47.684;10.806;2023-06-14T00:20:27;7.50;;;2.93;;
16737;SDS011;17906;47.684;10.806;2023-06-14T00:22:54;4.03;;;2.50;;
16737;SDS011;17906;47.684;10.806;2023-06-14T00:25:21;7.07;;;2.93;;
16737;SDS011;17906;47.684;10.806;2023-06-14T00:27:50;7.83;;;3.00;;
16737;SDS011;17906;47.684;10.806;2023-06-14T00:30:16;4.83;;;2.73;;
16737;SDS011;17906;47.684;10.806;2023-06-14T00:32:43;4.67;;;2.77;;
16737;SDS011;17906;47.684;10.806;2023-06-14T00:35:10;3.43;;;2.47;;
16737;SDS011;17906;47.684;10.806;2023-06-14T00:37:37;15.27;;;2.60;;
16737;SDS011;17906;47.684;10.806;2023-06-14T00:40:05;3.63;;;2.53;;
16737;SDS011;17906;47.684;10.806;2023-06-14T00:42:32;4.33;;;2.80;;
16737;SDS011;17906;47.684;10.806;2023-06-14T00:45:00;8.00;;;2.97;;
16737;SDS011;17906;47.684;10.806;2023-06-14T00:47:27;4.70;;;2.63;;
16737;SDS011;17906;47.684;10.806;2023-06-14T00:49:54;6.63;;;2.90;;
16737;SDS011;17906;47.684;10.806;2023-06-14T00:52:21;5.03;;;2.83;;
16737;SDS011;17906;47.684;10.806;2023-06-14T00:54:49;4.90;;;2.97;;
16737;SDS011;17906;47.684;10.806;2023-06-14T00:57:16;4.47;;;2.77;;
16737;SDS011;17906;47.684;10.806;2023-06-14T00:59:43;4.20;;;2.53;;
16737;SDS011;17906;47.684;10.806;2023-06-14T01:02:12;5.17;;;2.87;;
16737;SDS011;17906;47.684;10.806;2023-06-14T01:04:41;4.93;;;2.60;;
16737;SDS011;17906;47.684;10.806;2023-06-14T01:07:11;8.33;;;2.97;;
16737;SDS011;17906;47.684;10.806;2023-06-14T01:09:48;4.90;;;3.00;;
16737;SDS011;17906;47.684;10.806;2023-06-14T01:12:27;4.63;;;2.93;;
16737;SDS011;17906;47.684;10.806;2023-06-14T01:15:12;7.17;;;2.67;;
16737;SDS011;17906;47.684;10.806;2023-06-14T01:17:41;5.00;;;2.73;;
16737;SDS011;17906;47.684;10.806;2023-06-14T01:20:11;4.43;;;2.67;;
16737;SDS011;17906;47.684;10.806;2023-06-14T01:22:47;5.93;;;3.07;;
16737;SDS011;17906;47.684;10.806;2023-06-14T01:25:16;4.30;;;2.80;;
16737;SDS011;17906;47.684;10.806;2023-06-14T01:27:46;5.97;;;3.37;;
16737;SDS011;17906;47.684;10.806;2023-06-14T01:30:14;4.40;;;2.87;;
16737;SDS011;17906;47.684;10.806;2023-06-14T01:32:41;4.60;;;2.10;;
16737;SDS011;17906;47.684;10.806;2023-06-14T01:35:08;4.67;;;2.60;;
16737;SDS011;17906;47.684;10.806;2023-06-14T01:37:34;3.17;;;2.30;;
16737;SDS011;17906;47.684;10.806;2023-06-14T01:40:03;4.60;;;2.80;;
16737;SDS011;17906;47.684;10.806;2023-06-14T01:42:32;4.60;;;2.70;;
16737;SDS011;17906;47.684;10.806;2023-06-14T01:45:00;6.93;;;2.97;;
16737;SDS011;17906;47.684;10.806;2023-06-14T01:47:28;5.80;;;2.67;;
16737;SDS011;17906;47.684;10.806;2023-06-14T01:49:55;4.60;;;2.53;;
16737;SDS011;17906;47.684;10.806;2023-06-14T01:52:22;3.83;;;2.50;;
16737;SDS011;17906;47.684;10.806;2023-06-14T01:54:49;3.13;;;2.13;;
16737;SDS011;17906;47.684;10.806;2023-06-14T01:57:17;4.73;;;2.60;;
16737;SDS011;17906;47.684;10.806;2023-06-14T01:59:44;5.00;;;2.83;;
16737;SDS011;17906;47.684;10.806;2023-06-14T02:02:13;4.20;;;2.50;;
16737;SDS011;17906;47.684;10.806;2023-06-14T02:04:40;7.20;;;2.53;;
16737;SDS011;17906;47.684;10.806;2023-06-14T02:07:07;4.80;;;2.40;;
16737;SDS011;17906;47.684;10.806;2023-06-14T02:09:34;4.90;;;2.93;;
16737;SDS011;17906;47.684;10.806;2023-06-14T02:12:01;5.47;;;2.87;;
16737;SDS011;17906;47.684;10.806;2023-06-14T02:14:29;6.27;;;3.00;;
16737;SDS011;17906;47.684;10.806;2023-06-14T02:16:56;4.93;;;2.73;;
16737;SDS011;17906;47.684;10.806;2023-06-14T02:19:22;6.80;;;3.10;;
16737;SDS011;17906;47.684;10.806;2023-06-14T02:21:49;7.37;;;2.93;;
16737;SDS011;17906;47.684;10.806;2023-06-14T02:24:15;4.77;;;2.73;;
16737;SDS011;17906;47.684;10.806;2023-06-14T02:26:42;6.63;;;2.67;;
16737;SDS011;17906;47.684;10.806;2023-06-14T02:29:08;4.13;;;2.80;;
16737;SDS011;17906;47.684;10.806;2023-06-14T02:31:38;5.30;;;2.80;;
16737;SDS011;17906;47.684;10.806;2023-06-14T02:34:06;5.27;;;3.20;;
16737;SDS011;17906;47.684;10.806;2023-06-14T02:36:34;6.50;;;3.03;;
16737;SDS011;17906;47.684;10.806;2023-06-14T02:39:06;5.93;;;3.10;;
16737;SDS011;17906;47.684;10.806;2023-06-14T02:41:34;5.20;;;2.90;;
16737;SDS011;17906;47.684;10.806;2023-06-14T02:44:01;4.80;;;2.50;;
16737;SDS011;17906;47.684;10.806;2023-06-14T02:46:27;5.93;;;2.83;;
16737;SDS011;17906;47.684;10.806;2023-06-14T02:48:55;3.90;;;2.53;;
16737;SDS011;17906;47.684;10.806;2023-06-14T02:51:22;4.90;;;2.77;;
16737;SDS011;17906;47.684;10.806;2023-06-14T02:53:48;3.90;;;2.80;;
16737;SDS011;17906;47.684;10.806;2023-06-14T02:56:15;6.90;;;3.13;;
16737;SDS011;17906;47.684;10.806;2023-06-14T02:58:44;3.83;;;2.33;;
16737;SDS011;17906;47.684;10.806;2023-06-14T03:01:11;4.37;;;2.80;;
16737;SDS011;17906;47.684;10.806;2023-06-14T03:03:38;4.90;;;2.90;;
16737;SDS011;17906;47.684;10.806;2023-06-14T03:06:06;6.17;;;3.07;;
16737;SDS011;17906;47.684;10.806;2023-06-14T03:08:33;5.30;;;3.13;;
16737;SDS011;17906;47.684;10.806;2023-06-14T03:11:04;5.63;;;2.83;;
16737;SDS011;17906;47.684;10.806;2023-06-14T03:13:31;4.63;;;2.80;;
16737;SDS011;17906;47.684;10.806;2023-06-14T03:15:58;4.77;;;2.80;;
16737;SDS011;17906;47.684;10.806;2023-06-14T03:18:27;7.20;;;2.90;;
16737;SDS011;17906;47.684;10.806;2023-06-14T03:20:54;4.13;;;2.70;;
16737;SDS011;17906;47.684;10.806;2023-06-14T03:23:23;4.23;;;2.30;;
16737;SDS011;17906;47.684;10.806;2023-06-14T03:25:50;6.03;;;2.57;;
16737;SDS011;17906;47.684;10.806;2023-06-14T03:28:17;5.30;;;3.03;;
16737;SDS011;17906;47.684;10.806;2023-06-14T03:30:43;3.70;;;2.53;;
16737;SDS011;17906;47.684;10.806;2023-06-14T03:33:09;4.47;;;2.70;;
16737;SDS011;17906;47.684;10.806;2023-06-14T03:35:36;6.77;;;3.17;;
16737;SDS011;17906;47.684;10.806;2023-06-14T03:38:03;7.30;;;2.70;;
16737;SDS011;17906;47.684;10.806;2023-06-14T03:40:31;5.67;;;2.40;;
16737;SDS011;17906;47.684;10.806;2023-06-14T03:42:57;4.53;;;2.40;;
16737;SDS011;17906;47.684;10.806;2023-06-14T03:45:24;6.17;;;2.90;;
16737;SDS011;17906;47.684;10.806;2023-06-14T03:47:50;7.00;;;2.90;;
16737;SDS011;17906;47.684;10.806;2023-06-14T03:50:17;5.37;;;2.63;;
16737;SDS011;17906;47.684;10.806;2023-06-14T03:52:44;5.27;;;2.70;;
16737;SDS011;17906;47.684;10.806;2023-06-14T03:55:11;5.67;;;2.73;;
16737;SDS011;17906;47.684;10.806;2023-06-14T03:57:40;6.63;;;2.60;;
16737;SDS011;17906;47.684;10.806;2023-06-14T04:00:07;4.57;;;2.63;;
16737;SDS011;17906;47.684;10.806;2023-06-14T04:02:36;4.87;;;2.70;;
16737;SDS011;17906;47.684;10.806;2023-06-14T04:05:03;6.53;;;2.87;;
16737;SDS011;17906;47.684;10.806;2023-06-14T04:07:30;6.07;;;2.60;;
16737;SDS011;17906;47.684;10.806;2023-06-14T04:09:57;5.57;;;2.77;;
16737;SDS011;17906;47.684;10.806;2023-06-14T04:12:23;5.17;;;2.80;;
16737;SDS011;17906;47.684;10.806;2023-06-14T04:14:51;4.30;;;2.50;;
16737;SDS011;17906;47.684;10.806;2023-06-14T04:17:17;6.90;;;2.93;;
16737;SDS011;17906;47.684;10.806;2023-06-14T04:19:44;4.63;;;2.67;;
16737;SDS011;17906;47.684;10.806;2023-06-14T04:22:10;4.90;;;2.73;;
16737;SDS011;17906;47.684;10.806;2023-06-14T04:24:37;4.50;;;2.60;;
16737;SDS011;17906;47.684;10.806;2023-06-14T04:27:04;5.97;;;3.10;;
16737;SDS011;17906;47.684;10.806;2023-06-14T04:29:31;6.97;;;2.97;;
16737;SDS011;17906;47.684;10.806;2023-06-14T04:31:59;6.90;;;3.20;;
16737;SDS011;17906;47.684;10.806;2023-06-14T04:34:27;5.27;;;3.00;;
16737;SDS011;17906;47.684;10.806;2023-06-14T04:36:54;4.73;;;2.73;;
16737;SDS011;17906;47.684;10.806;2023-06-14T04:39:22;5.23;;;2.90;;
16737;SDS011;17906;47.684;10.806;2023-06-14T04:41:49;4.27;;;2.63;;
16737;SDS011;17906;47.684;10.806;2023-06-14T04:44:18;7.10;;;3.00;;
16737;SDS011;17906;47.684;10.806;2023-06-14T04:46:44;4.87;;;2.90;;
16737;SDS011;17906;47.684;10.806;2023-06-14T04:49:13;5.87;;;3.30;;
16737;SDS011;17906;47.684;10.806;2023-06-14T04:51:40;6.73;;;3.37;;
16737;SDS011;17906;47.684;10.806;2023-06-14T04:54:07;6.17;;;3.30;;
16737;SDS011;17906;47.684;10.806;2023-06-14T04:56:35;6.33;;;3.80;;
16737;SDS011;17906;47.684;10.806;2023-06-14T04:59:02;7.30;;;4.27;;
16737;SDS011;17906;47.684;10.806;2023-06-14T05:01:30;5.70;;;3.80;;
16737;SDS011;17906;47.684;10.806;2023-06-14T05:03:57;6.57;;;4.17;;
16737;SDS011;17906;47.684;10.806;2023-06-14T05:06:25;5.80;;;3.73;;
16737;SDS011;17906;47.684;10.806;2023-06-14T05:08:52;7.40;;;3.67;;
16737;SDS011;17906;47.684;10.806;2023-06-14T05:11:19;6.37;;;3.77;;
16737;SDS011;17906;47.684;10.806;2023-06-14T05:13:45;5.97;;;3.70;;
16737;SDS011;17906;47.684;10.806;2023-06-14T05:16:12;5.73;;;3.70;;
16737;SDS011;17906;47.684;10.806;2023-06-14T05:18:40;9.23;;;3.67;;
16737;SDS011;17906;47.684;10.806;2023-06-14T05:21:07;9.23;;;4.13;;
16737;SDS011;17906;47.684;10.806;2023-06-14T05:23:35;8.60;;;4.33;;
16737;SDS011;17906;47.684;10.806;2023-06-14T05:26:01;9.23;;;4.20;;
16737;SDS011;17906;47.684;10.806;2023-06-14T05:28:29;6.10;;;3.77;;
16737;SDS011;17906;47.684;10.806;2023-06-14T05:30:56;6.63;;;4.10;;
16737;SDS011;17906;47.684;10.806;2023-06-14T05:33:24;7.77;;;4.67;;
16737;SDS011;17906;47.684;10.806;2023-06-14T05:35:50;7.30;;;4.10;;
16737;SDS011;17906;47.684;10.806;2023-06-14T05:38:17;9.33;;;4.03;;
16737;SDS011;17906;47.684;10.806;2023-06-14T05:40:45;6.17;;;3.97;;
16737;SDS011;17906;47.684;10.806;2023-06-14T05:43:11;7.63;;;3.70;;
16737;SDS011;17906;47.684;10.806;2023-06-14T05:45:37;10.47;;;3.90;;
16737;SDS011;17906;47.684;10.806;2023-06-14T05:48:04;7.97;;;3.40;;
16737;SDS011;17906;47.684;10.806;2023-06-14T05:50:31;6.47;;;3.53;;
16737;SDS011;17906;47.684;10.806;2023-06-14T05:52:57;5.83;;;3.30;;
16737;SDS011;17906;47.684;10.806;2023-06-14T05:55:24;6.27;;;3.70;;
16737;SDS011;17906;47.684;10.806;2023-06-14T05:57:52;5.80;;;3.53;;
16737;SDS011;17906;47.684;10.806;2023-06-14T06:00:19;5.27;;;3.37;;
16737;SDS011;17906;47.684;10.806;2023-06-14T06:02:46;6.07;;;3.70;;
16737;SDS011;17906;47.684;10.806;2023-06-14T06:05:13;6.40;;;3.93;;
16737;SDS011;17906;47.684;10.806;2023-06-14T06:07:40;7.10;;;4.00;;
16737;SDS011;17906;47.684;10.806;2023-06-14T06:10:07;6.23;;;3.50;;
16737;SDS011;17906;47.684;10.806;2023-06-14T06:12:34;6.57;;;3.83;;
16737;SDS011;17906;47.684;10.806;2023-06-14T06:15:02;5.43;;;3.20;;
16737;SDS011;17906;47.684;10.806;2023-06-14T06:17:29;7.47;;;3.57;;
16737;SDS011;17906;47.684;10.806;2023-06-14T06:19:55;5.80;;;3.57;;
16737;SDS011;17906;47.684;10.806;2023-06-14T06:22:22;4.97;;;3.10;;
16737;SDS011;17906;47.684;10.806;2023-06-14T06:24:48;4.47;;;3.17;;
16737;SDS011;17906;47.684;10.806;2023-06-14T06:27:15;5.13;;;3.20;;
16737;SDS011;17906;47.684;10.806;2023-06-14T06:29:43;4.97;;;3.40;;
16737;SDS011;17906;47.684;10.806;2023-06-14T06:32:11;5.23;;;3.20;;
16737;SDS011;17906;47.684;10.806;2023-06-14T06:34:38;4.73;;;3.37;;
16737;SDS011;17906;47.684;10.806;2023-06-14T06:37:05;4.77;;;3.17;;
16737;SDS011;17906;47.684;10.806;2023-06-14T06:39:32;5.20;;;3.37;;
16737;SDS011;17906;47.684;10.806;2023-06-14T06:41:59;4.80;;;3.10;;
16737;SDS011;17906;47.684;10.806;2023-06-14T06:44:25;6.47;;;3.60;;
16737;SDS011;17906;47.684;10.806;2023-06-14T06:46:52;6.63;;;3.58;;
16737;SDS011;17906;47.684;10.806;2023-06-14T06:49:20;6.60;;;3.25;;
16737;SDS011;17906;47.684;10.806;2023-06-14T06:51:58;5.72;;;3.22;;
16737;SDS011;17906;47.684;10.806;2023-06-14T06:54:26;6.70;;;3.00;;
16737;SDS011;17906;47.684;10.806;2023-06-14T06:56:53;5.32;;;3.17;;
16737;SDS011;17906;47.684;10.806;2023-06-14T06:59:20;4.55;;;3.15;;
16737;SDS011;17906;47.684;10.806;2023-06-14T07:01:46;4.78;;;2.80;;
16737;SDS011;17906;47.684;10.806;2023-06-14T07:04:13;8.90;;;3.13;;
16737;SDS011;17906;47.684;10.806;2023-06-14T07:06:42;6.20;;;3.15;;
16737;SDS011;17906;47.684;10.806;2023-06-14T07:09:09;4.55;;;2.97;;
16737;SDS011;17906;47.684;10.806;2023-06-14T07:11:37;5.15;;;3.30;;
16737;SDS011;17906;47.684;10.806;2023-06-14T07:14:04;5.22;;;3.15;;
16737;SDS011;17906;47.684;10.806;2023-06-14T07:16:31;5.70;;;3.05;;
16737;SDS011;17906;47.684;10.806;2023-06-14T07:18:57;8.65;;;3.30;;
16737;SDS011;17906;47.684;10.806;2023-06-14T07:21:24;5.43;;;3.40;;
16737;SDS011;17906;47.684;10.806;2023-06-14T07:23:53;5.38;;;3.45;;
16737;SDS011;17906;47.684;10.806;2023-06-14T07:26:20;6.70;;;3.30;;
16737;SDS011;17906;47.684;10.806;2023-06-14T07:28:47;7.28;;;3.22;;
16737;SDS011;17906;47.684;10.806;2023-06-14T07:31:13;5.07;;;3.13;;
16737;SDS011;17906;47.684;10.806;2023-06-14T07:33:40;4.50;;;3.10;;
16737;SDS011;17906;47.684;10.806;2023-06-14T07:36:08;5.40;;;3.08;;
16737;SDS011;17906;47.684;10.806;2023-06-14T07:38:34;7.55;;;3.50;;
16737;SDS011;17906;47.684;10.806;2023-06-14T07:41:03;4.38;;;3.00;;
16737;SDS011;17906;47.684;10.806;2023-06-14T07:43:29;5.03;;;2.85;;
16737;SDS011;17906;47.684;10.806;2023-06-14T07:45:56;5.65;;;3.15;;
16737;SDS011;17906;47.684;10.806;2023-06-14T07:48:23;8.48;;;3.38;;
16737;SDS011;17906;47.684;10.806;2023-06-14T07:50:49;5.18;;;2.95;;
16737;SDS011;17906;47.684;10.806;2023-06-14T07:53:16;4.25;;;2.88;;
16737;SDS011;17906;47.684;10.806;2023-06-14T07:55:42;4.97;;;3.08;;
16737;SDS011;17906;47.684;10.806;2023-06-14T07:58:10;5.72;;;2.80;;
16737;SDS011;17906;47.684;10.806;2023-06-14T08:00:37;3.28;;;2.70;;
16737;SDS011;17906;47.684;10.806;2023-06-14T08:03:03;3.63;;;2.78;;
16737;SDS011;17906;47.684;10.806;2023-06-14T08:05:30;3.97;;;2.80;;
16737;SDS011;17906;47.684;10.806;2023-06-14T08:07:57;4.13;;;2.95;;
16737;SDS011;17906;47.684;10.806;2023-06-14T08:10:23;4.97;;;2.78;;
16737;SDS011;17906;47.684;10.806;2023-06-14T08:12:50;6.57;;;3.35;;
16737;SDS011;17906;47.684;10.806;2023-06-14T08:15:18;5.90;;;2.67;;
16737;SDS011;17906;47.684;10.806;2023-06-14T08:17:45;4.53;;;3.10;;
16737;SDS011;17906;47.684;10.806;2023-06-14T08:20:12;6.32;;;2.80;;
16737;SDS011;17906;47.684;10.806;2023-06-14T08:22:41;5.07;;;3.03;;
16737;SDS011;17906;47.684;10.806;2023-06-14T08:25:08;8.32;;;3.50;;
16737;SDS011;17906;47.684;10.806;2023-06-14T08:27:36;4.97;;;2.80;;
16737;SDS011;17906;47.684;10.806;2023-06-14T08:30:03;4.97;;;3.45;;
16737;SDS011;17906;47.684;10.806;2023-06-14T08:32:31;5.00;;;2.92;;
16737;SDS011;17906;47.684;10.806;2023-06-14T08:34:57;6.28;;;3.05;;
16737;SDS011;17906;47.684;10.806;2023-06-14T08:37:24;4.78;;;3.20;;
16737;SDS011;17906;47.684;10.806;2023-06-14T08:39:51;6.53;;;3.03;;
16737;SDS011;17906;47.684;10.806;2023-06-14T08:42:18;5.65;;;3.05;;
16737;SDS011;17906;47.684;10.806;2023-06-14T08:44:47;7.07;;;3.50;;
16737;SDS011;17906;47.684;10.806;2023-06-14T08:47:14;4.80;;;3.13;;
16737;SDS011;17906;47.684;10.806;2023-06-14T08:49:45;4.07;;;3.22;;
16737;SDS011;17906;47.684;10.806;2023-06-14T08:52:13;8.77;;;3.10;;
16737;SDS011;17906;47.684;10.806;2023-06-14T08:54:45;6.25;;;3.65;;
16737;SDS011;17906;47.684;10.806;2023-06-14T08:57:13;6.47;;;3.53;;
16737;SDS011;17906;47.684;10.806;2023-06-14T08:59:47;3.97;;;3.10;;
16737;SDS011;17906;47.684;10.806;2023-06-14T09:02:17;4.28;;;3.35;;
16737;SDS011;17906;47.684;10.806;2023-06-14T09:04:48;5.90;;;3.50;;
16737;SDS011;17906;47.684;10.806;2023-06-14T09:07:15;6.80;;;3.38;;
16737;SDS011;17906;47.684;10.806;2023-06-14T09:09:42;4.78;;;2.80;;
16737;SDS011;17906;47.684;10.806;2023-06-14T09:12:08;4.47;;;3.30;;
16737;SDS011;17906;47.684;10.806;2023-06-14T09:14:37;5.72;;;3.60;;
16737;SDS011;17906;47.684;10.806;2023-06-14T09:17:06;4.22;;;3.22;;
16737;SDS011;17906;47.684;10.806;2023-06-14T09:19:33;5.57;;;3.50;;
16737;SDS011;17906;47.684;10.806;2023-06-14T09:22:01;4.15;;;3.15;;
16737;SDS011;17906;47.684;10.806;2023-06-14T09:24:29;5.15;;;3.60;;
16737;SDS011;17906;47.684;10.806;2023-06-14T09:26:56;4.15;;;3.40;;
16737;SDS011;17906;47.684;10.806;2023-06-14T09:29:23;4.18;;;3.35;;
16737;SDS011;17906;47.684;10.806;2023-06-14T09:31:51;8.90;;;3.38;;
16737;SDS011;17906;47.684;10.806;2023-06-14T09:34:18;5.25;;;3.40;;
16737;SDS011;17906;47.684;10.806;2023-06-14T09:36:48;4.90;;;3.80;;
16737;SDS011;17906;47.684;10.806;2023-06-14T09:39:17;5.35;;;3.65;;
16737;SDS011;17906;47.684;10.806;2023-06-14T09:41:44;5.57;;;3.78;;
16737;SDS011;17906;47.684;10.806;2023-06-14T09:44:11;5.00;;;3.05;;
16737;SDS011;17906;47.684;10.806;2023-06-14T09:46:38;4.15;;;3.35;;
16737;SDS011;17906;47.684;10.806;2023-06-14T09:49:05;5.70;;;3.42;;
16737;SDS011;17906;47.684;10.806;2023-06-14T09:51:32;7.00;;;3.55;;
16737;SDS011;17906;47.684;10.806;2023-06-14T09:54:01;4.63;;;3.33;;
16737;SDS011;17906;47.684;10.806;2023-06-14T09:56:31;5.38;;;3.80;;
16737;SDS011;17906;47.684;10.806;2023-06-14T09:59:00;6.65;;;3.65;;
16737;SDS011;17906;47.684;10.806;2023-06-14T10:01:32;4.28;;;3.28;;
16737;SDS011;17906;47.684;10.806;2023-06-14T10:04:02;10.52;;;3.47;;
16737;SDS011;17906;47.684;10.806;2023-06-14T10:06:30;5.20;;;3.38;;
16737;SDS011;17906;47.684;10.806;2023-06-14T10:08:59;6.05;;;3.50;;
16737;SDS011;17906;47.684;10.806;2023-06-14T10:11:26;5.60;;;3.67;;
16737;SDS011;17906;47.684;10.806;2023-06-14T10:13:54;5.82;;;3.58;;
16737;SDS011;17906;47.684;10.806;2023-06-14T10:16:23;6.68;;;3.70;;
16737;SDS011;17906;47.684;10.806;2023-06-14T10:18:55;4.38;;;3.50;;
16737;SDS011;17906;47.684;10.806;2023-06-14T10:21:32;8.52;;;3.30;;
16737;SDS011;17906;47.684;10.806;2023-06-14T10:24:03;4.65;;;3.40;;
16737;SDS011;17906;47.684;10.806;2023-06-14T10:26:33;8.23;;;3.40;;
16737;SDS011;17906;47.684;10.806;2023-06-14T10:29:01;5.30;;;3.47;;
16737;SDS011;17906;47.684;10.806;2023-06-14T10:31:41;4.53;;;3.60;;
16737;SDS011;17906;47.684;10.806;2023-06-14T10:34:08;5.05;;;3.30;;
16737;SDS011;17906;47.684;10.806;2023-06-14T10:36:34;9.00;;;3.40;;
16737;SDS011;17906;47.684;10.806;2023-06-14T10:39:04;6.85;;;3.60;;
16737;SDS011;17906;47.684;10.806;2023-06-14T10:41:34;7.35;;;3.60;;
16737;SDS011;17906;47.684;10.806;2023-06-14T10:47:09;6.22;;;3.65;;
16737;SDS011;17906;47.684;10.806;2023-06-14T10:49:39;8.25;;;3.50;;
16737;SDS011;17906;47.684;10.806;2023-06-14T10:52:07;8.07;;;4.15;;
16737;SDS011;17906;47.684;10.806;2023-06-14T10:54:55;5.80;;;3.80;;
16737;SDS011;17906;47.684;10.806;2023-06-14T10:57:22;6.57;;;3.60;;
16737;SDS011;17906;47.684;10.806;2023-06-14T10:59:50;4.57;;;3.13;;
16737;SDS011;17906;47.684;10.806;2023-06-14T11:02:21;4.57;;;3.50;;
16737;SDS011;17906;47.684;10.806;2023-06-14T11:05:23;5.40;;;3.72;;
16737;SDS011;17906;47.684;10.806;2023-06-14T11:07:58;5.05;;;3.20;;
16737;SDS011;17906;47.684;10.806;2023-06-14T11:10:37;5.25;;;3.53;;
16737;SDS011;17906;47.684;10.806;2023-06-14T11:13:05;5.45;;;3.60;;
16737;SDS011;17906;47.684;10.806;2023-06-14T11:15:34;4.45;;;3.28;;
16737;SDS011;17906;47.684;10.806;2023-06-14T11:18:01;4.30;;;3.20;;
16737;SDS011;17906;47.684;10.806;2023-06-14T11:20:30;5.05;;;3.42;;
16737;SDS011;17906;47.684;10.806;2023-06-14T11:22:57;5.90;;;3.50;;
16737;SDS011;17906;47.684;10.806;2023-06-14T11:25:24;5.60;;;3.40;;
16737;SDS011;17906;47.684;10.806;2023-06-14T11:27:53;5.45;;;3.00;;
16737;SDS011;17906;47.684;10.806;2023-06-14T11:30:20;7.68;;;3.70;;
16737;SDS011;17906;47.684;10.806;2023-06-14T11:32:49;4.50;;;3.33;;
16737;SDS011;17906;47.684;10.806;2023-06-14T11:35:17;5.00;;;3.50;;
16737;SDS011;17906;47.684;10.806;2023-06-14T11:37:44;4.78;;;3.45;;
16737;SDS011;17906;47.684;10.806;2023-06-14T11:40:13;3.22;;;2.88;;
16737;SDS011;17906;47.684;10.806;2023-06-14T11:42:40;9.23;;;3.30;;
16737;SDS011;17906;47.684;10.806;2023-06-14T11:45:07;3.85;;;3.00;;
16737;SDS011;17906;47.684;10.806;2023-06-14T11:47:35;5.82;;;3.58;;
16737;SDS011;17906;47.684;10.806;2023-06-14T11:50:04;5.65;;;3.42;;
16737;SDS011;17906;47.684;10.806;2023-06-14T11:52:32;5.20;;;3.33;;
16737;SDS011;17906;47.684;10.806;2023-06-14T11:54:59;6.72;;;3.33;;
16737;SDS011;17906;47.684;10.806;2023-06-14T11:57:26;6.07;;;3.35;;
16737;SDS011;17906;47.684;10.806;2023-06-14T11:59:52;7.65;;;3.42;;
16737;SDS011;17906;47.684;10.806;2023-06-14T12:02:22;5.25;;;3.50;;
16737;SDS011;17906;47.684;10.806;2023-06-14T12:04:50;8.52;;;3.63;;
16737;SDS011;17906;47.684;10.806;2023-06-14T12:07:19;5.38;;;3.20;;
16737;SDS011;17906;47.684;10.806;2023-06-14T12:10:03;5.25;;;3.10;;
16737;SDS011;17906;47.684;10.806;2023-06-14T12:12:34;6.20;;;3.60;;
16737;SDS011;17906;47.684;10.806;2023-06-14T12:15:02;4.00;;;3.30;;
16737;SDS011;17906;47.684;10.806;2023-06-14T12:17:31;4.20;;;3.35;;
16737;SDS011;17906;47.684;10.806;2023-06-14T12:19:58;5.75;;;3.63;;
16737;SDS011;17906;47.684;10.806;2023-06-14T12:22:27;5.10;;;3.72;;
16737;SDS011;17906;47.684;10.806;2023-06-14T12:24:55;4.03;;;3.05;;
16737;SDS011;17906;47.684;10.806;2023-06-14T12:27:22;6.05;;;3.55;;
16737;SDS011;17906;47.684;10.806;2023-06-14T12:30:00;4.88;;;2.85;;
16737;SDS011;17906;47.684;10.806;2023-06-14T12:32:27;4.63;;;3.50;;
16737;SDS011;17906;47.684;10.806;2023-06-14T12:34:54;8.32;;;3.28;;
16737;SDS011;17906;47.684;10.806;2023-06-14T12:37:21;5.30;;;3.25;;
16737;SDS011;17906;47.684;10.806;2023-06-14T12:39:50;6.22;;;3.65;;
16737;SDS011;17906;47.684;10.806;2023-06-14T12:42:17;5.72;;;3.42;;
16737;SDS011;17906;47.684;10.806;2023-06-14T12:44:43;4.45;;;3.10;;
16737;SDS011;17906;47.684;10.806;2023-06-14T12:47:10;6.40;;;3.45;;
16737;SDS011;17906;47.684;10.806;2023-06-14T12:49:37;6.53;;;3.42;;
16737;SDS011;17906;47.684;10.806;2023-06-14T12:52:03;6.72;;;3.30;;
16737;SDS011;17906;47.684;10.806;2023-06-14T12:54:30;5.35;;;3.35;;
16737;SDS011;17906;47.684;10.806;2023-06-14T12:56:58;7.13;;;3.70;;
16737;SDS011;17906;47.684;10.806;2023-06-14T12:59:24;4.97;;;3.03;;
16737;SDS011;17906;47.684;10.806;2023-06-14T13:01:58;5.55;;;3.25;;
16737;SDS011;17906;47.684;10.806;2023-06-14T13:04:25;6.78;;;3.40;;
16737;SDS011;17906;47.684;10.806;2023-06-14T13:06:51;6.82;;;3.67;;
16737;SDS011;17906;47.684;10.806;2023-06-14T13:09:18;6.30;;;3.03;;
16737;SDS011;17906;47.684;10.806;2023-06-14T13:11:44;4.55;;;3.30;;
16737;SDS011;17906;47.684;10.806;2023-06-14T13:14:13;3.83;;;3.00;;
16737;SDS011;17906;47.684;10.806;2023-06-14T13:16:40;6.70;;;3.28;;
16737;SDS011;17906;47.684;10.806;2023-06-14T13:19:07;3.85;;;3.05;;
16737;SDS011;17906;47.684;10.806;2023-06-14T13:21:33;6.45;;;3.25;;
16737;SDS011;17906;47.684;10.806;2023-06-14T13:24:00;6.60;;;4.03;;
16737;SDS011;17906;47.684;10.806;2023-06-14T13:26:26;4.93;;;3.08;;
16737;SDS011;17906;47.684;10.806;2023-06-14T13:28:53;7.03;;;3.72;;
16737;SDS011;17906;47.684;10.806;2023-06-14T13:31:21;5.10;;;3.17;;
16737;SDS011;17906;47.684;10.806;2023-06-14T13:33:47;7.13;;;3.45;;
16737;SDS011;17906;47.684;10.806;2023-06-14T13:36:14;6.72;;;3.65;;
16737;SDS011;17906;47.684;10.806;2023-06-14T13:38:41;5.55;;;3.50;;
16737;SDS011;17906;47.684;10.806;2023-06-14T13:41:07;7.43;;;3.40;;
16737;SDS011;17906;47.684;10.806;2023-06-14T13:43:34;35.88;;;6.40;;
16737;SDS011;17906;47.684;10.806;2023-06-14T13:46:01;15.90;;;4.15;;
16737;SDS011;17906;47.684;10.806;2023-06-14T13:48:29;6.95;;;3.03;;
16737;SDS011;17906;47.684;10.806;2023-06-14T13:50:55;4.05;;;3.10;;
16737;SDS011;17906;47.684;10.806;2023-06-14T13:53:23;5.78;;;3.22;;
16737;SDS011;17906;47.684;10.806;2023-06-14T13:55:49;4.03;;;3.08;;
16737;SDS011;17906;47.684;10.806;2023-06-14T13:58:17;6.25;;;3.10;;
16737;SDS011;17906;47.684;10.806;2023-06-14T14:00:44;6.55;;;2.97;;
16737;SDS011;17906;47.684;10.806;2023-06-14T14:03:10;8.10;;;3.08;;
16737;SDS011;17906;47.684;10.806;2023-06-14T14:05:38;4.00;;;3.15;;
16737;SDS011;17906;47.684;10.806;2023-06-14T14:08:05;5.20;;;3.08;;
16737;SDS011;17906;47.684;10.806;2023-06-14T14:10:31;7.57;;;2.90;;
16737;SDS011;17906;47.684;10.806;2023-06-14T14:12:59;5.10;;;3.08;;
16737;SDS011;17906;47.684;10.806;2023-06-14T14:15:26;4.22;;;3.35;;
16737;SDS011;17906;47.684;10.806;2023-06-14T14:17:53;5.80;;;3.33;;
16737;SDS011;17906;47.684;10.806;2023-06-14T14:20:22;7.85;;;3.42;;
16737;SDS011;17906;47.684;10.806;2023-06-14T14:22:50;4.88;;;3.30;;
16737;SDS011;17906;47.684;10.806;2023-06-14T14:25:17;4.45;;;3.00;;
16737;SDS011;17906;47.684;10.806;2023-06-14T14:27:43;4.10;;;3.05;;
16737;SDS011;17906;47.684;10.806;2023-06-14T14:30:10;6.03;;;2.75;;
16737;SDS011;17906;47.684;10.806;2023-06-14T14:32:38;5.13;;;3.17;;
16737;SDS011;17906;47.684;10.806;2023-06-14T14:35:06;5.05;;;3.20;;
16737;SDS011;17906;47.684;10.806;2023-06-14T14:37:33;5.57;;;3.00;;
16737;SDS011;17906;47.684;10.806;2023-06-14T14:40:01;6.13;;;3.33;;